createdAt,value
2022-08-20T00:06:01.535Z,100697.53
2022-08-20T00:13:03.550Z,100703.16
2022-08-20T00:20:05.817Z,100704.44
2022-08-20T00:27:07.290Z,100711.47
2022-08-20T00:34:08.808Z,100716.72
2022-08-20T00:41:12.484Z,100711.56
2022-08-20T00:48:13.935Z,100715.16
2022-08-20T00:55:15.415Z,100715.47
2022-08-20T01:02:17.632Z,100711.69
2022-08-20T01:09:50.299Z,100720.78
2022-08-20T01:16:40.791Z,100722.13
2022-08-20T01:23:51.355Z,100716.63
2022-08-20T01:30:52.874Z,100714.34
2022-08-20T01:37:54.563Z,100714.84
2022-08-20T01:44:56.186Z,100724.09
2022-08-20T01:51:58.989Z,100732.97
2022-08-20T01:59:01.194Z,100728.06
2022-08-20T02:06:03.221Z,100724.78
2022-08-20T02:13:05.506Z,100738.88
2022-08-20T02:20:07.156Z,100734.34
2022-08-20T02:27:08.605Z,100748.91
2022-08-20T02:34:14.762Z,100764.28
2022-08-20T02:41:24.295Z,100759.59
2022-08-20T02:48:25.941Z,100764.28
2022-08-20T02:55:28.454Z,100754.66
2022-08-20T03:02:30.248Z,100752.06
2022-08-20T03:09:31.857Z,100747.06
2022-08-20T03:16:33.273Z,100733.50
2022-08-20T03:23:35.020Z,100732.50
2022-08-20T03:30:37.014Z,100734.22
2022-08-20T03:37:39.776Z,100727.88
2022-08-20T03:44:48.767Z,100726.00
2022-08-20T03:52:01.334Z,100728.03
2022-08-20T03:59:02.793Z,100735.22
2022-08-20T04:06:04.279Z,100736.41
2022-08-20T04:13:06.908Z,100735.38
2022-08-20T04:20:10.783Z,100751.81
2022-08-20T04:27:12.350Z,100756.75
2022-08-20T04:34:14.213Z,100737.72
2022-08-20T04:41:23.011Z,100744.09
2022-08-20T04:48:25.389Z,100744.78
2022-08-20T04:55:26.809Z,100755.03
2022-08-20T05:02:28.318Z,100757.63
2022-08-20T05:09:32.376Z,100765.53
2022-08-20T05:16:45.447Z,100773.28
2022-08-20T05:23:47.004Z,100772.28
2022-08-20T05:30:48.843Z,100773.69
2022-08-20T05:37:51.284Z,100783.94
2022-08-20T05:44:52.918Z,100777.13
2022-08-20T05:51:54.457Z,100777.66
2022-08-20T05:58:56.113Z,100793.47
2022-08-20T06:05:57.866Z,100787.69
2022-08-20T06:12:59.354Z,100802.28
2022-08-20T06:20:01.606Z,100809.34
2022-08-20T06:27:03.651Z,100800.72
2022-08-20T06:34:05.253Z,100809.78
2022-08-20T06:41:08.000Z,100814.03
2022-08-20T06:48:10.171Z,100813.44
2022-08-20T06:55:17.334Z,100815.00
2022-08-20T07:02:18.790Z,100811.72
2022-08-20T07:09:21.298Z,100827.53
2022-08-20T07:16:22.749Z,100837.19
2022-08-20T07:23:24.661Z,100845.28
2022-08-20T07:30:56.210Z,100852.81
2022-08-20T07:37:59.071Z,100866.31
2022-08-20T07:45:00.539Z,100873.09
2022-08-20T07:52:02.014Z,100861.09
2022-08-20T07:59:03.457Z,100866.91
2022-08-20T08:06:05.109Z,100869.47
2022-08-20T08:13:07.263Z,100866.19
2022-08-20T08:20:09.003Z,100870.44
2022-08-20T08:27:10.554Z,100879.91
2022-08-20T08:34:12.887Z,100892.78
2022-08-20T08:41:14.358Z,100875.09
2022-08-20T08:48:18.571Z,100884.50
2022-08-20T08:55:20.797Z,100886.59
2022-08-20T09:02:23.190Z,100892.72
2022-08-20T09:09:28.944Z,100895.22
2022-08-20T09:16:52.654Z,100900.56
2022-08-20T09:23:51.829Z,100914.53
2022-08-20T09:30:53.278Z,100913.63
2022-08-20T09:37:55.970Z,100908.38
2022-08-20T09:44:57.799Z,100912.06
2022-08-20T09:51:59.539Z,100905.25
2022-08-20T09:59:02.898Z,100904.78
2022-08-20T10:06:04.582Z,100908.06
2022-08-20T10:13:06.069Z,100908.53
2022-08-20T10:20:08.768Z,100909.94
2022-08-20T10:27:10.225Z,100908.59
2022-08-20T10:34:11.762Z,100911.72
2022-08-20T10:41:13.292Z,100906.09
2022-08-20T10:48:19.449Z,100911.53
2022-08-20T10:55:22.840Z,100911.31
2022-08-20T11:02:24.483Z,100921.06
2022-08-20T11:09:26.015Z,100929.22
2022-08-20T11:16:27.478Z,100931.50
2022-08-20T11:23:28.922Z,100933.00
2022-08-20T11:30:33.136Z,100932.13
2022-08-20T11:37:34.586Z,100940.38
2022-08-20T11:44:36.065Z,100942.75
2022-08-20T11:51:49.232Z,100939.66
2022-08-20T11:58:51.720Z,100940.91
2022-08-20T12:05:53.250Z,100950.91
2022-08-20T12:12:55.189Z,100951.75
2022-08-20T12:19:57.298Z,100941.09
2022-08-20T12:27:18.307Z,100940.75
2022-08-20T12:40:32.156Z,100957.59
2022-08-20T12:47:39.382Z,100948.00
2022-08-20T12:54:41.038Z,100957.91
2022-08-20T13:01:42.768Z,100954.13
2022-08-20T13:08:44.456Z,100964.03
2022-08-20T13:15:46.144Z,100958.47
2022-08-20T13:22:47.783Z,100961.28
2022-08-20T13:29:53.990Z,100957.66
2022-08-20T13:36:58.059Z,100958.06
2022-08-20T13:43:59.666Z,100962.16
2022-08-20T13:51:01.380Z,100965.25
2022-08-20T13:58:08.717Z,100972.56
2022-08-20T14:05:10.521Z,100967.06
2022-08-20T14:12:13.909Z,100960.16
2022-08-20T14:19:15.587Z,100952.25
2022-08-20T14:26:17.190Z,100959.47
2022-08-20T14:33:18.808Z,100957.94
2022-08-20T14:40:21.530Z,100952.69
2022-08-20T14:47:28.001Z,100953.19
2022-08-20T14:54:29.604Z,100956.97
2022-08-20T15:01:31.290Z,100959.78
2022-08-20T15:08:33.005Z,100969.06
2022-08-20T15:15:35.277Z,100978.50
2022-08-20T15:22:37.380Z,100971.66
2022-08-20T15:29:39.574Z,100972.69
2022-08-20T15:36:41.500Z,100980.06
2022-08-20T15:43:43.271Z,100979.50
2022-08-20T15:50:47.973Z,100982.09
2022-08-20T15:58:10.843Z,100980.13
2022-08-20T16:05:20.146Z,100982.19
2022-08-20T16:12:28.490Z,100980.03
2022-08-20T16:19:40.114Z,100963.19
2022-08-20T16:26:46.227Z,100976.19
2022-08-20T16:34:32.255Z,100985.47
2022-08-20T16:41:41.107Z,100998.28
2022-08-20T16:48:48.517Z,100992.38
2022-08-20T16:55:50.173Z,100997.84
2022-08-20T17:02:54.385Z,100997.53
2022-08-20T17:10:09.034Z,101000.28
2022-08-20T17:17:31.217Z,100990.31
2022-08-20T17:24:32.837Z,101001.84
2022-08-20T17:31:38.449Z,100999.97
2022-08-20T17:38:47.992Z,101001.53
2022-08-20T17:45:49.629Z,101010.63
2022-08-20T17:52:54.359Z,101015.13
2022-08-20T18:00:02.727Z,101027.47
2022-08-20T18:07:32.302Z,101025.34
2022-08-20T18:15:00.035Z,101037.84
2022-08-20T18:22:12.183Z,101036.56
2022-08-20T18:29:16.330Z,101044.38
2022-08-20T18:36:17.807Z,101048.75
2022-08-20T18:43:27.888Z,101049.31
2022-08-20T18:50:38.590Z,101049.06
2022-08-20T18:57:53.353Z,101049.38
2022-08-20T19:05:02.130Z,101056.31
2022-08-20T19:12:07.305Z,101057.78
2022-08-20T19:19:16.847Z,101064.44
2022-08-20T19:26:25.235Z,101060.97
2022-08-20T19:33:29.761Z,101063.56
2022-08-20T19:40:38.862Z,101057.53
2022-08-20T19:47:41.759Z,101058.69
2022-08-20T19:54:53.947Z,101064.03
2022-08-20T20:02:01.437Z,101068.75
2022-08-20T20:09:13.523Z,101065.03
2022-08-20T20:16:16.849Z,101064.44
2022-08-20T20:23:46.982Z,101061.56
2022-08-20T20:30:48.836Z,101058.81
2022-08-20T20:38:06.419Z,101066.75
2022-08-20T20:45:48.708Z,101062.59
2022-08-20T20:52:51.702Z,101064.63
2022-08-20T20:59:53.385Z,101070.81
2022-08-20T21:06:56.719Z,101061.88
2022-08-20T21:13:58.354Z,101063.59
2022-08-20T21:20:59.942Z,101054.06
2022-08-20T21:28:01.704Z,101053.19
2022-08-20T21:35:03.831Z,101043.69
2022-08-20T21:42:16.070Z,101050.50
2022-08-20T21:49:28.486Z,101043.28
2022-08-20T21:56:30.178Z,101029.56
2022-08-20T22:03:37.219Z,101029.28
2022-08-20T22:10:40.592Z,101033.03
2022-08-20T22:17:42.375Z,101031.59
2022-08-20T22:24:45.584Z,101034.81
2022-08-20T22:31:47.487Z,101023.25
2022-08-20T22:38:54.652Z,101023.84
2022-08-20T22:45:58.230Z,101031.22
2022-08-20T22:53:00.680Z,101040.28
2022-08-20T23:00:02.489Z,101040.44
2022-08-20T23:07:04.463Z,101041.91
2022-08-20T23:14:06.083Z,101044.66
2022-08-20T23:21:07.702Z,101040.31
2022-08-20T23:28:09.947Z,101035.00
2022-08-20T23:35:12.128Z,101035.59
2022-08-20T23:42:14.527Z,101028.22
2022-08-20T23:49:16.223Z,101034.56
2022-08-20T23:56:17.939Z,101038.31
